Řízení letového provozu České republiky
Letiste: LKTB Aktualizace: 20.01.2017 22:08:14  UTC
 METAR LKTB 20.01. 22:00 ...
METAR LKTB 202200Z VRB01KT 5000 BR NSC M10/M12 Q1034 R27/31//95 NOSIG RMK REG QNH 1028=
 TAF LKTB 20.01. 17:00 ...
TAF LKTB 201700Z 2018/2200 VRB02KT 7000 SCT036      TEMPO 2100/2108 2500 BR NSC      PROB30 TEMPO 2102/2108 1200 BR NSC      BECMG 2121/2200 3000 BR SCT007=